Time;durP1;ratioP1;P1;durP2;ratioP2;P2;SDS_P1;SDS_P2;PMS_P1;PMS_P2;Temp;Humidity;BMP_temperature;BMP_pressure;BME280_temperature;BME280_humidity;BME280_pressure;Samples;Min_cycle;Max_cycle;Signal;HPM_P1;HPM_P2
2023/01/12 00:00:39;;;;;;;19.70;3.65;;;8.40;99.90;;;;;;5070664;28;20149;-55
2023/01/12 00:03:06;;;;;;;20.40;3.58;;;8.30;99.90;;;;;;5071425;28;20049;-56
2023/01/12 00:05:34;;;;;;;20.15;3.75;;;8.30;99.90;;;;;;5069846;28;20454;-55
2023/01/12 00:08:01;;;;;;;27.45;4.05;;;8.30;99.90;;;;;;5069708;28;20048;-53
2023/01/12 00:10:27;;;;;;;20.23;3.67;;;8.30;99.90;;;;;;5069730;28;20551;-55
2023/01/12 00:12:54;;;;;;;26.25;4.72;;;8.30;99.90;;;;;;5070312;28;20114;-55
2023/01/12 00:16:33;;;;;;;23.40;3.85;;;8.30;99.90;;;;;;5071478;28;20049;-53
2023/01/12 00:18:23;;;;;;;26.20;4.50;;;8.30;99.90;;;;;;5067952;28;20056;-56
2023/01/12 00:20:49;;;;;;;32.92;4.55;;;8.30;99.90;;;;;;5054244;28;20076;-56
2023/01/12 00:23:16;;;;;;;31.02;4.90;;;8.30;99.90;;;;;;5051431;28;20101;-55
2023/01/12 00:25:58;;;;;;;31.88;4.35;;;8.30;99.90;;;;;;5051415;28;20052;-56
2023/01/12 00:28:25;;;;;;;23.80;4.00;;;8.30;99.90;;;;;;5068977;28;20083;-49
2023/01/12 00:30:52;;;;;;;28.40;4.50;;;8.30;99.90;;;;;;5071026;28;20041;-50
2023/01/12 00:33:19;;;;;;;28.33;4.22;;;8.20;99.90;;;;;;5070598;28;20048;-56
2023/01/12 00:35:47;;;;;;;33.95;4.85;;;8.20;99.90;;;;;;5034457;28;20826;-51
2023/01/12 00:38:14;;;;;;;30.25;4.75;;;8.20;99.90;;;;;;5069979;28;20049;-54
2023/01/12 00:40:41;;;;;;;27.58;4.25;;;8.20;99.90;;;;;;5071095;28;20044;-56
2023/01/12 00:45:52;;;;;;;27.50;5.03;;;8.30;99.90;;;;;;5036727;28;20053;-55
2023/01/12 00:48:19;;;;;;;28.30;4.13;;;8.30;99.90;;;;;;5069100;28;20048;-56
2023/01/12 00:50:47;;;;;;;24.52;4.15;;;8.20;99.90;;;;;;5066884;28;20451;-55
2023/01/12 00:53:13;;;;;;;32.08;4.03;;;8.30;99.90;;;;;;5060505;28;20098;-55
2023/01/12 00:55:40;;;;;;;30.60;6.10;;;8.30;99.90;;;;;;5053506;28;20131;-50
2023/01/12 00:58:07;;;;;;;34.13;4.07;;;8.30;99.90;;;;;;5048894;28;20048;-57
2023/01/12 01:00:34;;;;;;;27.20;4.35;;;8.40;99.90;;;;;;5062562;28;20090;-57
2023/01/12 01:03:01;;;;;;;34.20;4.82;;;8.30;99.90;;;;;;5051763;28;20048;-56
2023/01/12 01:05:27;;;;;;;34.10;4.47;;;8.30;99.90;;;;;;5070523;28;20049;-55
2023/01/12 01:07:55;;;;;;;28.58;3.90;;;8.30;99.90;;;;;;5053779;28;20087;-54
2023/01/12 01:10:22;;;;;;;31.85;4.22;;;8.30;99.90;;;;;;5070555;28;20094;-56
2023/01/12 01:12:49;;;;;;;29.63;4.07;;;8.30;99.90;;;;;;5051527;28;20087;-55
2023/01/12 01:15:16;;;;;;;25.67;3.95;;;8.30;99.90;;;;;;5068818;28;20074;-52
2023/01/12 01:17:43;;;;;;;29.35;4.55;;;8.30;99.90;;;;;;5069806;28;20041;-42
2023/01/12 01:20:11;;;;;;;32.08;4.35;;;8.30;99.90;;;;;;5052124;28;20480;-55
2023/01/12 01:22:38;;;;;;;35.42;4.30;;;8.30;99.90;;;;;;5052763;28;20094;-56
2023/01/12 01:25:07;;;;;;;31.05;4.40;;;8.30;99.90;;;;;;5054649;28;20127;-56
2023/01/12 01:27:33;;;;;;;30.23;3.90;;;8.30;99.90;;;;;;5070469;28;20076;-55
2023/01/12 01:30:00;;;;;;;35.00;4.57;;;8.30;99.90;;;;;;5073282;28;20076;-57
2023/01/12 01:32:27;;;;;;;30.50;4.85;;;8.30;99.90;;;;;;5074488;28;20052;-57
2023/01/12 01:34:54;;;;;;;37.10;4.78;;;8.30;99.90;;;;;;5069644;28;20428;-56
2023/01/12 01:37:21;;;;;;;29.17;4.20;;;8.30;99.90;;;;;;5068048;28;20110;-49
2023/01/12 01:39:48;;;;;;;32.08;5.75;;;8.30;99.90;;;;;;5074213;28;20049;-56
2023/01/12 01:42:26;;;;;;;32.35;4.30;;;8.30;99.90;;;;;;5073114;28;20086;-56
2023/01/12 01:44:54;;;;;;;37.40;4.88;;;8.30;99.90;;;;;;5071349;28;20040;-53
2023/01/12 01:47:28;;;;;;;31.35;3.95;;;8.30;99.90;;;;;;5062363;28;20079;-55
2023/01/12 01:49:55;;;;;;;32.22;4.70;;;8.30;99.90;;;;;;5073517;28;20492;-56
2023/01/12 01:52:23;;;;;;;29.42;3.80;;;8.40;99.90;;;;;;5072103;28;20076;-54
2023/01/12 01:54:51;;;;;;;34.65;4.78;;;8.40;99.90;;;;;;5072117;28;20101;-55
2023/01/12 01:57:19;;;;;;;33.95;4.82;;;8.40;99.90;;;;;;5048777;28;20139;-56
2023/01/12 01:59:48;;;;;;;39.10;5.05;;;8.40;99.90;;;;;;5055527;28;20086;-54
2023/01/12 02:02:15;;;;;;;31.02;4.53;;;8.40;99.90;;;;;;5070689;28;20048;-51
2023/01/12 02:04:42;;;;;;;22.02;3.05;;;8.40;99.90;;;;;;5070573;28;20114;-55
2023/01/12 02:07:09;;;;;;;25.67;4.35;;;8.40;99.90;;;;;;5069237;28;20179;-55
2023/01/12 02:09:35;;;;;;;28.92;4.05;;;8.40;99.90;;;;;;5061799;28;20044;-56
2023/01/12 02:17:52;;;;;;;29.42;4.38;;;8.40;99.90;;;;;;4994245;28;20137;-56
2023/01/12 02:20:41;;;;;;;26.90;4.55;;;8.40;99.90;;;;;;5041523;28;20052;-53
2023/01/12 02:23:41;;;;;;;25.98;4.15;;;8.40;99.90;;;;;;5054569;28;20056;-58
2023/01/12 02:26:35;;;;;;;27.23;4.95;;;8.40;99.90;;;;;;5067047;28;20119;-59
2023/01/12 02:29:34;;;;;;;33.65;4.78;;;8.40;99.90;;;;;;5053323;28;20094;-56
2023/01/12 02:32:04;;;;;;;29.63;4.97;;;8.40;99.90;;;;;;5041849;28;20114;-58
2023/01/12 02:34:34;;;;;;;36.25;5.03;;;8.40;99.90;;;;;;5073358;28;20076;-54
2023/01/12 02:37:07;;;;;;;32.05;4.95;;;8.40;99.90;;;;;;5073210;28;20075;-57
2023/01/12 02:39:38;;;;;;;28.80;4.70;;;8.50;99.90;;;;;;5053206;28;20049;-56
2023/01/12 02:44:53;;;;;;;31.05;4.80;;;8.50;99.90;;;;;;5053071;28;20052;-56
2023/01/12 02:47:25;;;;;;;34.38;5.22;;;8.50;99.90;;;;;;5073223;28;20076;-56
2023/01/12 02:49:52;;;;;;;30.15;4.97;;;8.50;99.90;;;;;;5071533;28;20452;-56
2023/01/12 02:52:19;;;;;;;30.80;4.95;;;8.60;99.90;;;;;;5070650;28;20055;-57
2023/01/12 02:54:47;;;;;;;31.02;5.10;;;8.60;99.90;;;;;;5053037;28;20621;-58
2023/01/12 02:57:14;;;;;;;30.75;4.32;;;8.60;99.90;;;;;;5073047;28;20132;-62
2023/01/12 02:59:41;;;;;;;31.85;4.78;;;8.60;99.90;;;;;;5070676;28;20084;-60
2023/01/12 03:02:09;;;;;;;30.52;4.78;;;8.70;99.90;;;;;;5069222;28;20454;-61
2023/01/12 03:04:38;;;;;;;27.35;4.95;;;8.60;99.90;;;;;;5054392;28;20495;-58
2023/01/12 03:07:30;;;;;;;25.98;4.55;;;8.70;99.90;;;;;;5047468;28;20431;-57
2023/01/12 03:09:59;;;;;;;27.35;4.63;;;8.70;99.90;;;;;;5071003;28;20642;-49
2023/01/12 03:12:27;;;;;;;26.33;4.32;;;8.70;99.90;;;;;;5072323;28;20072;-57
2023/01/12 03:14:54;;;;;;;24.60;4.20;;;8.70;99.90;;;;;;5054767;28;20080;-57
2023/01/12 03:17:24;;;;;;;33.75;5.20;;;8.70;99.90;;;;;;5051332;28;20140;-55
2023/01/12 03:19:52;;;;;;;21.77;3.97;;;8.70;99.90;;;;;;5051031;28;20076;-45
2023/01/12 03:22:19;;;;;;;37.40;5.32;;;8.70;99.90;;;;;;5052108;28;20080;-58
2023/01/12 03:24:48;;;;;;;31.13;4.70;;;8.70;99.90;;;;;;5054429;28;20052;-61
2023/01/12 03:27:16;;;;;;;27.23;4.93;;;8.70;99.90;;;;;;5073327;28;20109;-61
2023/01/12 03:29:44;;;;;;;23.38;4.13;;;8.80;99.90;;;;;;5069489;28;20115;-53
2023/01/12 03:32:11;;;;;;;22.20;3.97;;;8.80;99.90;;;;;;5071117;28;20484;-57
2023/01/12 03:34:38;;;;;;;24.08;3.58;;;8.80;99.90;;;;;;5052925;28;20396;-50
2023/01/12 03:37:07;;;;;;;23.92;5.07;;;8.80;99.90;;;;;;5072883;28;20048;-59
2023/01/12 03:39:37;;;;;;;22.55;3.83;;;8.80;99.90;;;;;;5072616;28;20084;-57
2023/01/12 03:42:06;;;;;;;18.23;4.28;;;8.90;99.90;;;;;;5053232;28;20553;-56
2023/01/12 03:44:36;;;;;;;21.45;3.13;;;8.80;99.90;;;;;;5068392;28;20096;-58
2023/01/12 03:47:04;;;;;;;20.02;3.25;;;8.80;99.90;;;;;;5053036;28;20552;-49
2023/01/12 03:49:33;;;;;;;18.55;3.38;;;8.80;99.90;;;;;;5051119;28;20094;-57
2023/01/12 03:52:00;;;;;;;19.67;3.13;;;8.80;99.90;;;;;;5071181;28;20052;-53
2023/01/12 03:54:28;;;;;;;15.70;2.85;;;8.80;99.90;;;;;;5071129;28;20094;-56
2023/01/12 03:56:55;;;;;;;15.10;3.13;;;8.80;99.90;;;;;;5068135;28;20110;-58
2023/01/12 03:59:22;;;;;;;19.42;2.70;;;8.80;99.90;;;;;;5068357;28;20086;-57
2023/01/12 04:01:49;;;;;;;15.90;3.83;;;8.90;99.90;;;;;;5071154;28;20337;-58
2023/01/12 04:04:15;;;;;;;13.98;2.40;;;8.80;99.90;;;;;;5070484;28;20048;-54
2023/01/12 04:06:42;;;;;;;13.60;2.67;;;8.80;99.90;;;;;;5042692;28;20091;-58
2023/01/12 04:09:09;;;;;;;11.40;3.08;;;8.80;99.90;;;;;;5053156;28;20076;-50
2023/01/12 04:14:21;;;;;;;15.45;2.97;;;8.80;99.90;;;;;;5041945;28;20052;-59
2023/01/12 04:16:48;;;;;;;12.00;2.72;;;8.80;99.90;;;;;;5071498;28;20457;-56
2023/01/12 04:19:15;;;;;;;17.33;3.05;;;8.80;99.90;;;;;;5053575;28;20052;-44
2023/01/12 04:24:26;;;;;;;14.82;2.97;;;8.80;99.90;;;;;;5070165;28;20052;-59
2023/01/12 04:26:54;;;;;;;10.15;2.47;;;8.80;99.90;;;;;;5069848;28;20098;-60
2023/01/12 04:29:21;;;;;;;10.57;2.58;;;8.80;99.90;;;;;;5053051;28;20072;-62
2023/01/12 04:31:47;;;;;;;8.48;2.35;;;8.90;99.90;;;;;;5052299;28;20048;-56
2023/01/12 04:34:14;;;;;;;7.75;1.85;;;8.80;99.90;;;;;;5071740;28;20496;-56
2023/01/12 04:36:41;;;;;;;12.23;2.05;;;8.90;99.90;;;;;;5053941;28;20083;-62
2023/01/12 04:39:08;;;;;;;10.48;1.92;;;8.90;99.90;;;;;;5051788;28;20111;-62
2023/01/12 04:41:35;;;;;;;10.43;2.15;;;8.90;99.90;;;;;;5067847;28;20052;-61
2023/01/12 04:44:03;;;;;;;10.82;2.78;;;8.80;99.90;;;;;;5070784;28;20088;-61
2023/01/12 04:46:30;;;;;;;10.32;2.60;;;8.80;99.90;;;;;;5069505;28;20064;-62
2023/01/12 04:48:57;;;;;;;7.32;2.47;;;8.80;99.90;;;;;;5041336;28;20182;-61
2023/01/12 04:51:24;;;;;;;11.52;2.40;;;8.80;99.90;;;;;;5064369;28;20127;-61
2023/01/12 04:53:52;;;;;;;9.60;2.08;;;8.80;99.90;;;;;;5057405;28;20447;-56
2023/01/12 04:56:19;;;;;;;10.25;2.40;;;8.80;99.90;;;;;;5064094;28;20053;-62
2023/01/12 04:58:46;;;;;;;9.63;2.28;;;8.80;99.90;;;;;;5053054;28;20079;-60
2023/01/12 05:01:15;;;;;;;13.55;2.65;;;8.80;99.90;;;;;;5054667;28;20094;-61
2023/01/12 05:03:42;;;;;;;10.40;2.70;;;8.80;99.90;;;;;;5054257;28;20454;-63
2023/01/12 05:06:09;;;;;;;5.88;1.83;;;8.80;99.90;;;;;;5071445;28;20055;-58
2023/01/12 05:11:21;;;;;;;7.68;1.60;;;8.70;99.90;;;;;;5075068;28;20084;-58
2023/01/12 05:13:52;;;;;;;6.75;1.65;;;8.70;99.90;;;;;;5073936;28;20041;-62
2023/01/12 05:16:20;;;;;;;;;;;8.70;99.90;;;;;;5058845;28;20049;-60
2023/01/12 05:18:47;;;;;;;4.57;1.42;;;8.60;99.90;;;;;;5051541;28;19968;-61
2023/01/12 05:21:15;;;;;;;4.82;2.00;;;8.60;99.90;;;;;;5072386;28;20076;-62
2023/01/12 05:23:42;;;;;;;5.35;1.48;;;8.60;99.90;;;;;;5054086;28;20159;-60
2023/01/12 05:26:09;;;;;;;3.92;1.25;;;8.60;99.90;;;;;;5051656;28;20075;-62
2023/01/12 05:28:36;;;;;;;7.78;1.60;;;8.60;99.90;;;;;;5053575;28;20083;-58
2023/01/12 05:31:04;;;;;;;7.47;1.25;;;8.60;99.90;;;;;;5056815;28;20098;-59
2023/01/12 05:33:32;;;;;;;6.05;1.10;;;8.60;99.90;;;;;;5073266;28;20129;-58
2023/01/12 05:35:59;;;;;;;8.18;1.80;;;8.60;99.90;;;;;;5055965;28;20117;-57
2023/01/12 05:38:25;;;;;;;6.05;1.33;;;8.60;99.90;;;;;;5052613;28;20169;-54
2023/01/12 05:40:52;;;;;;;5.82;1.40;;;8.50;99.90;;;;;;5038150;28;20048;-59
2023/01/12 05:46:04;;;;;;;5.30;1.33;;;8.50;99.90;;;;;;5075259;28;20052;-60
2023/01/12 05:48:32;;;;;;;7.35;1.50;;;8.50;99.90;;;;;;5067887;28;20045;-56
2023/01/12 05:51:00;;;;;;;7.05;1.80;;;8.50;99.90;;;;;;5056617;28;20060;-59
2023/01/12 05:53:27;;;;;;;4.03;1.42;;;8.60;99.90;;;;;;5055408;28;20037;-59
2023/01/12 05:55:54;;;;;;;8.13;1.45;;;8.50;99.90;;;;;;5073836;28;20094;-63
2023/01/12 05:58:21;;;;;;;7.53;1.50;;;8.60;99.90;;;;;;5070932;28;20556;-63
2023/01/12 06:00:48;;;;;;;4.80;1.40;;;8.60;99.90;;;;;;5046588;28;20140;-60
2023/01/12 06:03:14;;;;;;;4.50;1.30;;;8.60;99.90;;;;;;5056261;28;20087;-55
2023/01/12 06:05:42;;;;;;;4.80;1.52;;;8.60;99.90;;;;;;5054378;28;20091;-58
2023/01/12 06:08:09;;;;;;;11.23;1.85;;;8.60;99.90;;;;;;5053549;28;20098;-54
2023/01/12 06:10:38;;;;;;;8.40;1.40;;;8.70;99.90;;;;;;5050058;28;20138;-58
2023/01/12 06:15:49;;;;;;;6.35;1.60;;;8.70;99.90;;;;;;5054357;28;20131;-60
2023/01/12 06:18:17;;;;;;;7.18;1.75;;;8.70;99.90;;;;;;5064977;28;20045;-61
2023/01/12 06:20:45;;;;;;;7.72;1.48;;;8.70;99.90;;;;;;5072109;28;20052;-57
2023/01/12 06:23:12;;;;;;;2.42;1.13;;;8.80;99.90;;;;;;5046276;28;20098;-59
2023/01/12 06:25:39;;;;;;;6.40;1.38;;;8.80;99.90;;;;;;5052697;28;20080;-60
2023/01/12 06:28:06;;;;;;;4.88;1.27;;;8.80;99.90;;;;;;5055837;28;20134;-59
2023/01/12 06:30:33;;;;;;;6.68;1.20;;;8.80;99.90;;;;;;5042257;28;20114;-61
2023/01/12 06:33:02;;;;;;;6.78;1.23;;;8.80;99.90;;;;;;5054885;28;20096;-59
2023/01/12 06:35:29;;;;;;;4.78;1.00;;;8.80;99.90;;;;;;5074360;28;20247;-59
2023/01/12 06:37:57;;;;;;;5.63;1.38;;;8.90;99.90;;;;;;5072843;28;20480;-57
2023/01/12 06:40:24;;;;;;;4.05;1.02;;;8.90;99.90;;;;;;5053513;28;20048;-59
2023/01/12 06:42:51;;;;;;;4.97;0.93;;;8.90;99.90;;;;;;5068395;28;20446;-53
2023/01/12 06:45:17;;;;;;;5.90;1.33;;;9.00;99.90;;;;;;5050409;28;20126;-59
2023/01/12 06:47:45;;;;;;;3.10;0.93;;;9.00;99.90;;;;;;5070665;28;20076;-58
2023/01/12 06:50:12;;;;;;;2.40;1.00;;;9.00;99.90;;;;;;5071094;28;20425;-58
2023/01/12 06:52:39;;;;;;;3.80;1.55;;;9.00;99.90;;;;;;5071443;28;20045;-59
2023/01/12 06:55:08;;;;;;;3.45;1.27;;;9.10;99.90;;;;;;5070498;28;20048;-58
2023/01/12 06:57:34;;;;;;;4.72;1.30;;;9.10;99.90;;;;;;5054398;28;20132;-59
2023/01/12 07:00:01;;;;;;;6.07;1.30;;;9.10;99.90;;;;;;5072388;28;20080;-58
2023/01/12 07:02:28;;;;;;;3.35;1.42;;;9.10;99.90;;;;;;5055010;28;20049;-58
2023/01/12 07:04:55;;;;;;;2.47;1.35;;;9.10;99.90;;;;;;5069933;28;20495;-57
2023/01/12 07:07:22;;;;;;;3.35;1.17;;;9.20;99.90;;;;;;5069022;28;20048;-58
2023/01/12 07:09:49;;;;;;;2.72;1.48;;;9.20;99.90;;;;;;5036171;28;20097;-58
2023/01/12 07:12:17;;;;;;;4.45;1.30;;;9.20;99.90;;;;;;5053578;28;20103;-60
2023/01/12 07:14:44;;;;;;;2.83;1.20;;;9.20;99.90;;;;;;5071240;28;20515;-58
2023/01/12 07:17:11;;;;;;;2.88;1.30;;;9.20;99.90;;;;;;5054759;28;20090;-58
2023/01/12 07:19:38;;;;;;;3.95;1.30;;;9.20;99.90;;;;;;5044433;28;20045;-59
2023/01/12 07:22:05;;;;;;;4.75;1.25;;;9.20;99.90;;;;;;5064742;28;20448;-57
2023/01/12 07:24:31;;;;;;;2.00;1.50;;;9.20;99.90;;;;;;5051569;28;20048;-57
2023/01/12 07:26:58;;;;;;;4.32;1.65;;;9.30;99.90;;;;;;5054184;28;20547;-56
2023/01/12 07:29:26;;;;;;;3.35;1.80;;;9.30;99.90;;;;;;5050753;28;20060;-57
2023/01/12 07:31:53;;;;;;;2.88;1.55;;;9.30;99.90;;;;;;5061528;28;20140;-59
2023/01/12 07:34:20;;;;;;;4.30;2.03;;;9.30;99.90;;;;;;5071370;28;20053;-58
2023/01/12 07:36:48;;;;;;;4.53;2.03;;;9.30;99.90;;;;;;5047110;28;20056;-57
2023/01/12 07:39:15;;;;;;;4.38;2.60;;;9.30;99.90;;;;;;5065796;28;20453;-59
2023/01/12 07:44:27;;;;;;;4.00;2.05;;;9.40;99.90;;;;;;5053809;28;20056;-48
2023/01/12 07:46:54;;;;;;;6.18;2.10;;;9.40;99.90;;;;;;5072340;28;20117;-58
2023/01/12 07:49:21;;;;;;;5.75;2.53;;;9.40;99.90;;;;;;5060797;28;20124;-57
2023/01/12 07:51:48;;;;;;;3.92;2.28;;;9.40;99.90;;;;;;5044048;28;20060;-55
2023/01/12 07:54:15;;;;;;;6.13;2.30;;;9.40;99.90;;;;;;5051343;28;20492;-56
2023/01/12 07:56:42;;;;;;;6.03;2.60;;;9.50;99.90;;;;;;5067991;28;20080;-58
2023/01/12 07:59:09;;;;;;;7.78;2.85;;;9.50;99.90;;;;;;5071788;28;20364;-57
2023/01/12 08:01:38;;;;;;;7.72;2.97;;;9.50;99.90;;;;;;5051419;28;20131;-56
2023/01/12 08:04:05;;;;;;;7.43;2.67;;;9.50;99.90;;;;;;5071887;28;20060;-55
2023/01/12 08:06:32;;;;;;;7.28;2.90;;;9.50;99.90;;;;;;5069816;28;20078;-57
2023/01/12 08:08:58;;;;;;;9.07;3.08;;;9.60;99.90;;;;;;5051565;28;20099;-56
2023/01/12 08:11:25;;;;;;;12.27;3.35;;;9.60;99.90;;;;;;5072493;28;20056;-58
2023/01/12 08:13:54;;;;;;;12.52;3.20;;;9.60;99.90;;;;;;5054387;28;20084;-56
2023/01/12 08:16:22;;;;;;;13.48;2.97;;;9.70;99.90;;;;;;5053300;28;20044;-48
2023/01/12 08:18:52;;;;;;;14.35;3.67;;;9.70;99.90;;;;;;5069330;28;20083;-57
2023/01/12 08:21:20;;;;;;;14.63;3.92;;;9.70;99.90;;;;;;5054049;28;20463;-57
2023/01/12 08:23:48;;;;;;;21.13;4.13;;;9.80;99.90;;;;;;5054836;28;20468;-56
2023/01/12 08:26:16;;;;;;;24.25;3.90;;;9.80;99.90;;;;;;5070865;28;20495;-58
2023/01/12 08:28:45;;;;;;;31.15;4.03;;;9.90;99.90;;;;;;5068452;28;20140;-57
2023/01/12 08:31:13;;;;;;;32.40;4.72;;;9.90;99.90;;;;;;5071323;28;20412;-59
2023/01/12 08:33:40;;;;;;;36.15;4.43;;;9.90;99.90;;;;;;5054416;28;20059;-57
2023/01/12 08:36:09;;;;;;;30.00;4.32;;;10.00;99.90;;;;;;5066619;28;20102;-56
2023/01/12 08:38:36;;;;;;;29.35;4.50;;;10.10;99.90;;;;;;5070805;28;20233;-56
2023/01/12 08:44:02;;;;;;;39.15;4.93;;;10.20;99.90;;;;;;5072064;28;20048;-59
2023/01/12 08:46:29;;;;;;;37.38;4.70;;;10.30;99.90;;;;;;5053803;28;20083;-58
2023/01/12 08:48:55;;;;;;;40.63;5.07;;;10.30;99.90;;;;;;5072179;28;20151;-58
2023/01/12 08:51:24;;;;;;;44.28;6.35;;;10.40;99.90;;;;;;5053941;28;20541;-53
2023/01/12 08:53:50;;;;;;;37.85;5.25;;;10.40;99.90;;;;;;5071158;28;20095;-56
2023/01/12 08:56:17;;;;;;;46.33;6.07;;;10.40;99.90;;;;;;5069179;28;20088;-56
2023/01/12 08:58:44;;;;;;;35.95;5.47;;;10.50;99.90;;;;;;5054213;28;20052;-57
2023/01/12 09:01:12;;;;;;;33.25;5.32;;;10.50;99.90;;;;;;5069819;28;20114;-56
2023/01/12 09:03:39;;;;;;;31.13;4.95;;;10.50;99.90;;;;;;5066724;28;20456;-56
2023/01/12 09:06:13;;;;;;;34.67;5.45;;;10.50;99.90;;;;;;5065039;28;20048;-60
2023/01/12 09:08:42;;;;;;;39.97;5.72;;;10.50;99.90;;;;;;5043343;28;20462;-54
2023/01/12 09:11:09;;;;;;;39.90;4.93;;;10.50;99.90;;;;;;5065946;28;20127;-53
2023/01/12 09:13:36;;;;;;;38.70;5.63;;;10.60;99.90;;;;;;5047406;28;20049;-57
2023/01/12 09:16:03;;;;;;;39.30;4.43;;;10.60;99.90;;;;;;5032828;28;20103;-52
2023/01/12 09:18:33;;;;;;;43.17;5.28;;;10.60;99.90;;;;;;5032915;28;20132;-55
2023/01/12 09:21:01;;;;;;;38.80;4.28;;;10.60;99.90;;;;;;5054486;28;20102;-56
2023/01/12 09:23:28;;;;;;;31.02;4.43;;;10.70;99.90;;;;;;5070145;28;20044;-54
2023/01/12 09:25:56;;;;;;;31.60;4.70;;;10.70;99.90;;;;;;5069664;28;20080;-56
2023/01/12 09:28:23;;;;;;;28.83;4.13;;;10.70;99.90;;;;;;5054373;28;20084;-56
2023/01/12 09:30:53;;;;;;;33.88;5.25;;;10.80;99.90;;;;;;5071958;28;20102;-56
2023/01/12 09:33:20;;;;;;;30.95;4.68;;;10.80;99.90;;;;;;5053146;28;20096;-53
2023/01/12 09:35:47;;;;;;;32.95;4.70;;;10.80;99.90;;;;;;5048107;28;20048;-54
2023/01/12 09:38:14;;;;;;;28.92;4.57;;;10.80;99.90;;;;;;5054162;28;20060;-55
2023/01/12 09:40:44;;;;;;;31.40;4.78;;;10.90;99.90;;;;;;5071954;28;20132;-56
2023/01/12 09:48:42;;;;;;;34.35;5.18;;;10.90;99.90;;;;;;5055558;28;20053;-55
2023/01/12 09:51:11;;;;;;;33.05;5.20;;;10.90;99.90;;;;;;5055148;28;20095;-57
2023/01/12 09:53:38;;;;;;;29.30;4.30;;;11.00;99.90;;;;;;5066914;28;20048;-55
2023/01/12 09:56:10;;;;;;;35.67;4.72;;;11.00;99.90;;;;;;5056169;28;20483;-56
2023/01/12 09:58:48;;;;;;;31.50;4.90;;;11.00;99.90;;;;;;5046346;28;20080;-56
2023/01/12 10:01:15;;;;;;;30.20;4.95;;;11.00;99.90;;;;;;5043786;28;20098;-53
2023/01/12 10:03:42;;;;;;;33.92;4.70;;;11.10;99.90;;;;;;5073240;28;20095;-56
2023/01/12 10:06:14;;;;;;;35.97;4.85;;;11.10;99.90;;;;;;5073562;28;20076;-57
2023/01/12 10:08:41;;;;;;;27.30;4.35;;;11.20;99.90;;;;;;5050904;28;20052;-52
2023/01/12 10:11:12;;;;;;;35.05;5.03;;;11.20;99.90;;;;;;5071465;28;20432;-53
2023/01/12 10:14:09;;;;;;;35.58;5.97;;;11.20;99.90;;;;;;5073762;28;20465;-55
2023/01/12 10:16:40;;;;;;;33.83;4.47;;;11.20;99.90;;;;;;5052642;28;20496;-56
2023/01/12 10:19:11;;;;;;;29.83;4.53;;;11.30;99.90;;;;;;5055435;28;20045;-55
2023/01/12 10:21:37;;;;;;;33.13;4.75;;;11.30;99.90;;;;;;5073605;28;20582;-55
2023/01/12 10:24:09;;;;;;;29.90;4.32;;;11.30;99.90;;;;;;5071930;28;20102;-56
2023/01/12 10:26:39;;;;;;;32.50;4.90;;;11.40;99.90;;;;;;5052792;28;20084;-52
2023/01/12 10:29:09;;;;;;;31.55;4.35;;;11.40;99.90;;;;;;5072089;28;20075;-56
2023/01/12 10:31:36;;;;;;;30.25;4.55;;;11.40;99.90;;;;;;5052371;28;20044;-54
2023/01/12 10:34:05;;;;;;;24.52;5.05;;;11.40;99.90;;;;;;5073118;28;20150;-53
2023/01/12 10:36:32;;;;;;;26.33;4.50;;;11.50;99.90;;;;;;5063136;28;20488;-55
2023/01/12 10:39:02;;;;;;;26.23;3.63;;;11.50;99.90;;;;;;5053339;28;20140;-55
2023/01/12 10:41:29;;;;;;;22.23;3.80;;;11.50;99.90;;;;;;5054163;28;20062;-53
2023/01/12 10:44:12;;;;;;;27.48;4.80;;;11.50;99.90;;;;;;5069384;28;20080;-56
2023/01/12 10:46:39;;;;;;;29.20;4.85;;;11.50;99.90;;;;;;5071375;28;20396;-52
2023/01/12 10:49:16;;;;;;;23.02;4.15;;;11.50;99.90;;;;;;5042095;28;20077;-47
2023/01/12 10:51:50;;;;;;;20.73;4.05;;;11.50;99.90;;;;;;5063987;28;20076;-54
2023/01/12 10:54:18;;;;;;;28.02;4.32;;;11.50;99.90;;;;;;5070408;28;20086;-53
2023/01/12 10:56:53;;;;;;;22.20;3.38;;;11.50;99.90;;;;;;5053045;28;20139;-54
2023/01/12 10:59:22;;;;;;;23.33;4.15;;;11.50;99.90;;;;;;5069355;28;20446;-55
2023/01/12 11:01:50;;;;;;;25.88;4.18;;;11.50;99.90;;;;;;5055165;28;20084;-55
2023/01/12 11:04:20;;;;;;;34.15;4.82;;;11.40;99.90;;;;;;5054259;28;20484;-55
2023/01/12 11:06:56;;;;;;;25.98;4.13;;;11.50;99.90;;;;;;5072582;28;20460;-55
2023/01/12 11:09:24;;;;;;;28.48;4.65;;;11.50;99.90;;;;;;5052766;28;20088;-54
2023/01/12 11:11:55;;;;;;;30.60;4.70;;;11.50;99.90;;;;;;5056240;28;20056;-53
2023/01/12 11:14:27;;;;;;;35.57;5.27;;;11.50;99.90;;;;;;5072879;28;20079;-54
2023/01/12 11:16:53;;;;;;;33.60;4.25;;;11.40;99.90;;;;;;5072221;28;20090;-52
2023/01/12 11:19:23;;;;;;;30.25;4.82;;;11.50;99.90;;;;;;5072352;28;20052;-50
2023/01/12 11:21:52;;;;;;;29.83;4.88;;;11.50;99.90;;;;;;5051756;28;20106;-52
2023/01/12 11:24:40;;;;;;;33.50;3.95;;;11.50;99.90;;;;;;5053917;28;20102;-53
2023/01/12 11:27:10;;;;;;;32.70;4.57;;;11.50;99.90;;;;;;5053353;28;20486;-54
2023/01/12 11:29:47;;;;;;;27.15;4.53;;;11.50;99.90;;;;;;5055449;28;20064;-53
2023/01/12 11:32:15;;;;;;;32.72;4.05;;;11.50;99.90;;;;;;5069630;28;20091;-53
2023/01/12 11:34:51;;;;;;;34.75;5.18;;;11.50;99.90;;;;;;5069264;28;20056;-52
2023/01/12 11:37:18;;;;;;;30.25;4.47;;;11.50;99.90;;;;;;5042519;28;20113;-54
2023/01/12 11:39:47;;;;;;;37.00;4.95;;;11.50;99.90;;;;;;5072093;28;20049;-54
2023/01/12 11:45:07;;;;;;;28.00;4.45;;;11.50;99.90;;;;;;5070944;28;20052;-49
2023/01/12 11:47:35;;;;;;;29.85;5.32;;;11.60;99.90;;;;;;5048303;28;20132;-54
2023/01/12 11:50:05;;;;;;;26.90;4.15;;;11.60;99.90;;;;;;5054519;28;20052;-55
2023/01/12 11:52:32;;;;;;;30.38;4.65;;;11.70;99.90;;;;;;5054049;28;20442;-55
2023/01/12 11:54:58;;;;;;;25.42;3.95;;;11.70;99.90;;;;;;5053880;28;20103;-55
2023/01/12 11:57:35;;;;;;;29.58;5.95;;;11.70;99.90;;;;;;5053516;28;20071;-55
2023/01/12 12:00:12;;;;;;;24.60;3.97;;;11.70;99.90;;;;;;5072422;28;20049;-55
2023/01/12 12:02:39;;;;;;;31.58;4.35;;;11.70;99.90;;;;;;5071362;28;20772;-51
2023/01/12 12:05:13;;;;;;;27.73;4.93;;;11.70;99.90;;;;;;5069756;28;20080;-51
2023/01/12 12:07:48;;;;;;;27.50;4.60;;;11.70;99.90;;;;;;5070849;28;20430;-54
2023/01/12 12:10:20;;;;;;;28.58;4.40;;;11.80;99.90;;;;;;5071257;28;20132;-54
2023/01/12 12:12:55;;;;;;;;;;;11.80;99.90;;;;;;5055613;28;20088;-50
2023/01/12 12:15:27;;;;;;;27.25;4.35;;;11.80;99.90;;;;;;5048319;28;19948;-51
2023/01/12 12:18:01;;;;;;;27.65;4.57;;;11.70;99.90;;;;;;5053506;28;20082;-53
2023/01/12 12:20:31;;;;;;;26.73;5.07;;;11.70;99.90;;;;;;5051291;28;20141;-52
2023/01/12 12:23:04;;;;;;;21.95;3.97;;;11.70;99.90;;;;;;5054641;28;20185;-53
2023/01/12 12:25:36;;;;;;;21.92;4.03;;;11.70;99.90;;;;;;5071582;28;20080;-55
2023/01/12 12:28:14;;;;;;;26.77;4.53;;;11.70;99.90;;;;;;5070724;28;20052;-51
2023/01/12 12:30:53;;;;;;;21.70;4.07;;;11.70;99.90;;;;;;5070561;28;20052;-55
2023/01/12 12:33:24;;;;;;;26.92;4.80;;;11.60;99.90;;;;;;5069781;28;20106;-54
2023/01/12 12:35:58;;;;;;;25.17;4.13;;;11.60;99.90;;;;;;5053923;28;20080;-55
2023/01/12 12:38:32;;;;;;;29.10;5.13;;;11.60;99.90;;;;;;5070403;28;20044;-55
2023/01/12 12:46:43;;;;;;;32.25;4.88;;;11.50;99.90;;;;;;5052142;28;20076;-53
2023/01/12 12:49:11;;;;;;;27.05;4.68;;;11.50;99.90;;;;;;5054236;28;20103;-51
2023/01/12 12:51:38;;;;;;;40.60;6.60;;;11.50;99.90;;;;;;5051056;28;20053;-50
2023/01/12 12:54:06;;;;;;;31.83;4.75;;;11.50;99.90;;;;;;5052555;28;20297;-56
2023/01/12 12:56:34;;;;;;;40.45;4.97;;;11.50;99.90;;;;;;5063956;28;20052;-51
2023/01/12 12:59:01;;;;;;;31.23;5.35;;;11.50;99.90;;;;;;5054079;28;20048;-51
2023/01/12 13:01:41;;;;;;;35.00;5.13;;;11.50;99.90;;;;;;5070617;28;20125;-53
2023/01/12 13:04:13;;;;;;;33.20;5.20;;;11.60;99.90;;;;;;5053855;28;20087;-51
2023/01/12 13:06:44;;;;;;;34.97;5.10;;;11.60;99.90;;;;;;5070271;28;20126;-50
2023/01/12 13:09:29;;;;;;;;;;;11.60;99.90;;;;;;5072645;28;20060;-54
2023/01/12 13:12:09;;;;;;;39.40;5.22;;;11.60;99.90;;;;;;5051402;28;20398;-52
2023/01/12 13:14:37;;;;;;;34.92;4.70;;;11.70;99.90;;;;;;5051937;28;20409;-54
2023/01/12 13:17:05;;;;;;;31.35;4.88;;;11.70;99.90;;;;;;5058035;28;20086;-51
2023/01/12 13:19:36;;;;;;;33.50;5.40;;;11.70;99.90;;;;;;5051920;28;20052;-55
2023/01/12 13:22:26;;;;;;;23.15;4.05;;;11.70;99.90;;;;;;5068338;28;20464;-54
2023/01/12 13:24:53;;;;;;;26.83;4.30;;;11.80;99.90;;;;;;5070663;28;20495;-54
2023/01/12 13:27:49;;;;;;;34.67;4.57;;;11.80;99.90;;;;;;5074228;28;20197;-54
2023/01/12 13:30:39;;;;;;;33.00;4.57;;;11.80;99.90;;;;;;5051360;28;20052;-54
2023/01/12 13:33:23;;;;;;;37.05;5.40;;;11.80;99.90;;;;;;5054343;28;20507;-55
2023/01/12 13:36:07;;;;;;;29.23;4.93;;;11.80;99.90;;;;;;5052242;28;20048;-54
2023/01/12 13:38:57;;;;;;;34.35;4.53;;;11.70;99.90;;;;;;5056425;28;20140;-55
2023/01/12 13:44:14;;;;;;;26.25;4.80;;;11.70;99.90;;;;;;5064704;28;20407;-56